createdAt,value
2022-09-24T00:01:25.089Z,80.67
2022-09-24T00:03:57.212Z,78.85
2022-09-24T00:06:24.304Z,80.02
2022-09-24T00:08:55.069Z,80.82
2022-09-24T00:11:26.727Z,80.54
2022-09-24T00:13:54.170Z,81.21
2022-09-24T00:16:22.980Z,80.76
2022-09-24T00:18:49.921Z,80.05
2022-09-24T00:21:27.924Z,78.73
2022-09-24T00:23:56.911Z,79.87
2022-09-24T00:26:42.444Z,79.24
2022-09-24T00:29:11.258Z,78.70
2022-09-24T00:31:38.373Z,78.67
2022-09-24T00:34:05.746Z,79.34
2022-09-24T00:36:32.563Z,79.47
2022-09-24T00:39:01.266Z,79.88
2022-09-24T00:41:30.303Z,80.46
2022-09-24T00:43:57.338Z,81.87
2022-09-24T00:46:28.631Z,81.97
2022-09-24T00:49:03.206Z,81.85
2022-09-24T00:51:32.240Z,82.12
2022-09-24T00:54:07.055Z,81.94
2022-09-24T00:56:36.704Z,81.67
2022-09-24T00:59:04.911Z,80.97
2022-09-24T01:01:31.792Z,81.42
2022-09-24T01:03:59.520Z,81.88
2022-09-24T01:06:26.866Z,82.64
2022-09-24T01:08:55.201Z,82.80
2022-09-24T01:11:40.694Z,82.69
2022-09-24T01:14:36.044Z,83.80
2022-09-24T01:17:27.058Z,82.71
2022-09-24T01:20:02.921Z,82.30
2022-09-24T01:23:07.725Z,81.59
2022-09-24T01:25:58.500Z,81.92
2022-09-24T01:28:43.507Z,82.01
2022-09-24T01:31:29.993Z,82.37
2022-09-24T01:33:59.071Z,82.53
2022-09-24T01:36:27.050Z,82.71
2022-09-24T01:38:55.445Z,83.40
2022-09-24T01:41:22.550Z,81.91
2022-09-24T01:43:49.648Z,82.06
2022-09-24T01:46:19.904Z,82.75
2022-09-24T01:48:47.159Z,82.86
2022-09-24T01:51:36.046Z,83.01
2022-09-24T01:54:23.907Z,81.87
2022-09-24T01:57:00.169Z,80.79
2022-09-24T01:59:35.764Z,80.35
2022-09-24T02:02:39.746Z,81.19
2022-09-24T02:05:12.866Z,81.63
2022-09-24T02:07:54.206Z,82.20
2022-09-24T02:10:21.140Z,81.64
2022-09-24T02:12:53.502Z,80.96
2022-09-24T02:15:31.402Z,80.37
2022-09-24T02:18:04.936Z,79.75
2022-09-24T02:20:34.023Z,80.00
2022-09-24T02:23:00.939Z,79.26
2022-09-24T02:25:35.539Z,78.77
2022-09-24T02:28:03.242Z,79.14
2022-09-24T02:30:37.815Z,78.97
2022-09-24T02:33:26.850Z,78.86
2022-09-24T02:35:53.842Z,78.25
2022-09-24T02:38:20.836Z,79.04
2022-09-24T02:40:48.808Z,78.43
2022-09-24T02:43:15.618Z,78.79
2022-09-24T02:45:42.386Z,78.16
2022-09-24T02:48:09.133Z,78.35
2022-09-24T02:50:35.884Z,77.69
2022-09-24T02:53:02.570Z,77.26
2022-09-24T02:55:29.326Z,77.58
2022-09-24T02:57:56.060Z,78.57
2022-09-24T03:00:22.965Z,77.14
2022-09-24T03:02:49.782Z,77.93
2022-09-24T03:05:18.335Z,78.05
2022-09-24T03:07:45.433Z,77.88
2022-09-24T03:10:13.141Z,78.49
2022-09-24T03:12:40.890Z,76.60
2022-09-24T03:15:08.118Z,77.39
2022-09-24T03:17:34.839Z,78.18
2022-09-24T03:20:02.177Z,78.61
2022-09-24T03:22:28.893Z,77.74
2022-09-24T03:24:55.667Z,77.00
2022-09-24T03:27:22.381Z,77.54
2022-09-24T03:30:07.895Z,77.43
2022-09-24T03:32:35.944Z,77.58
2022-09-24T03:35:02.757Z,78.12
2022-09-24T03:37:29.485Z,77.95
2022-09-24T03:39:56.173Z,78.23
2022-09-24T03:42:22.964Z,79.17
2022-09-24T03:44:49.655Z,78.82
2022-09-24T03:47:16.601Z,78.35
2022-09-24T03:49:43.483Z,79.64
2022-09-24T03:52:10.275Z,78.75
2022-09-24T03:54:37.028Z,78.91
2022-09-24T03:57:03.896Z,79.70
2022-09-24T03:59:30.613Z,79.96
2022-09-24T04:01:57.536Z,79.84
2022-09-24T04:04:24.321Z,79.50
2022-09-24T04:06:52.824Z,79.89
2022-09-24T04:09:19.565Z,79.86
2022-09-24T04:11:46.384Z,80.52
2022-09-24T04:14:13.116Z,79.33
2022-09-24T04:16:40.136Z,79.67
2022-09-24T04:19:08.154Z,79.56
2022-09-24T04:21:34.932Z,81.22
2022-09-24T04:24:01.984Z,80.66
2022-09-24T04:26:28.774Z,80.02
2022-09-24T04:28:55.499Z,82.06
2022-09-24T04:31:22.830Z,82.17
2022-09-24T04:33:49.561Z,82.75
2022-09-24T04:36:17.020Z,82.41
2022-09-24T04:38:46.314Z,83.33
2022-09-24T04:41:13.828Z,83.03
2022-09-24T04:43:40.557Z,83.93
2022-09-24T04:46:09.419Z,83.42
2022-09-24T04:48:39.867Z,83.06
2022-09-24T04:51:07.955Z,83.81
2022-09-24T04:53:37.205Z,84.15
2022-09-24T04:56:04.794Z,84.67
2022-09-24T04:58:31.824Z,84.26
2022-09-24T05:01:03.834Z,84.49
2022-09-24T05:03:30.951Z,85.03
2022-09-24T05:05:57.709Z,85.40
2022-09-24T05:08:24.596Z,84.71
2022-09-24T05:10:53.465Z,84.74
2022-09-24T05:13:21.204Z,84.47
2022-09-24T05:15:48.015Z,83.64
2022-09-24T05:18:14.756Z,83.66
2022-09-24T05:20:41.473Z,83.99
2022-09-24T05:23:08.338Z,82.77
2022-09-24T05:25:54.996Z,82.66
2022-09-24T05:28:21.939Z,83.81
2022-09-24T05:30:48.925Z,83.55
2022-09-24T05:33:15.820Z,83.29
2022-09-24T05:35:42.542Z,84.35
2022-09-24T05:38:09.316Z,85.08
2022-09-24T05:40:48.287Z,84.68
2022-09-24T05:43:15.831Z,84.24
2022-09-24T05:45:42.629Z,84.85
2022-09-24T05:48:09.374Z,85.13
2022-09-24T05:50:36.100Z,85.77
2022-09-24T05:53:04.365Z,85.20
2022-09-24T05:55:32.568Z,85.17
2022-09-24T05:58:10.703Z,85.40
2022-09-24T06:00:37.837Z,84.55
2022-09-24T06:03:08.064Z,84.55
2022-09-24T06:05:35.657Z,84.37
2022-09-24T06:08:06.713Z,85.55
2022-09-24T06:10:33.606Z,85.03
2022-09-24T06:13:00.469Z,86.05
2022-09-24T06:15:27.580Z,86.40
2022-09-24T06:17:55.131Z,85.30
2022-09-24T06:20:22.840Z,86.72
2022-09-24T06:22:50.689Z,85.64
2022-09-24T06:25:17.444Z,86.18
2022-09-24T06:27:44.171Z,86.41
2022-09-24T06:30:11.870Z,87.20
2022-09-24T06:32:38.671Z,87.88
2022-09-24T06:35:06.260Z,87.59
2022-09-24T06:37:34.101Z,88.56
2022-09-24T06:40:01.005Z,87.73
2022-09-24T06:42:27.886Z,88.02
2022-09-24T06:44:55.953Z,87.35
2022-09-24T06:47:24.132Z,87.63
2022-09-24T06:49:50.997Z,87.70
2022-09-24T06:52:17.733Z,87.51
2022-09-24T06:54:44.482Z,86.97
2022-09-24T06:57:11.336Z,85.87
2022-09-24T06:59:38.021Z,86.51
2022-09-24T07:02:04.831Z,86.58
2022-09-24T07:04:31.609Z,86.54
2022-09-24T07:07:16.803Z,86.84
2022-09-24T07:09:43.578Z,86.52
2022-09-24T07:12:10.532Z,86.55
2022-09-24T07:14:37.288Z,83.95
2022-09-24T07:17:04.025Z,84.74
2022-09-24T07:19:30.840Z,82.86
2022-09-24T07:21:57.927Z,83.00
2022-09-24T07:24:24.711Z,84.21
2022-09-24T07:26:51.451Z,82.72
2022-09-24T07:29:18.586Z,83.75
2022-09-24T07:31:45.337Z,84.74
2022-09-24T07:34:12.260Z,84.73
2022-09-24T07:36:39.032Z,84.81
2022-09-24T07:39:06.061Z,84.42
2022-09-24T07:41:36.364Z,84.30
2022-09-24T07:44:07.943Z,83.54
2022-09-24T07:46:35.322Z,84.21
2022-09-24T07:49:02.128Z,84.71
2022-09-24T07:51:29.556Z,83.78
2022-09-24T07:53:57.525Z,82.59
2022-09-24T07:56:25.373Z,81.66
2022-09-24T07:58:53.130Z,82.75
2022-09-24T08:01:20.348Z,82.94
2022-09-24T08:03:47.352Z,81.65
2022-09-24T08:06:14.246Z,82.60
2022-09-24T08:08:41.078Z,83.14
2022-09-24T08:11:10.677Z,82.81
2022-09-24T08:13:38.010Z,81.49
2022-09-24T08:16:05.386Z,82.18
2022-09-24T08:18:33.219Z,82.34
2022-09-24T08:21:07.351Z,82.99
2022-09-24T08:23:34.602Z,83.42
2022-09-24T08:26:01.392Z,84.61
2022-09-24T08:28:28.649Z,83.02
2022-09-24T08:31:03.760Z,84.24
2022-09-24T08:33:32.574Z,83.69
2022-09-24T08:36:00.391Z,83.95
2022-09-24T08:38:27.371Z,82.88
2022-09-24T08:41:09.583Z,83.07
2022-09-24T08:43:54.765Z,83.41
2022-09-24T08:47:03.077Z,84.05
2022-09-24T08:49:37.742Z,84.01
2022-09-24T08:52:24.713Z,83.33
2022-09-24T08:54:52.981Z,84.35
2022-09-24T08:57:20.356Z,82.75
2022-09-24T08:59:50.266Z,81.85
2022-09-24T09:02:29.273Z,80.02
2022-09-24T09:05:02.902Z,81.26
2022-09-24T09:07:33.834Z,81.00
2022-09-24T09:10:15.106Z,80.58
2022-09-24T09:12:46.630Z,80.19
2022-09-24T09:15:16.465Z,78.88
2022-09-24T09:17:50.870Z,79.01
2022-09-24T09:20:21.566Z,78.57
2022-09-24T09:22:51.407Z,78.25
2022-09-24T09:25:24.810Z,77.47
2022-09-24T09:28:15.441Z,77.45
2022-09-24T09:31:08.455Z,76.06
2022-09-24T09:34:01.447Z,76.31
2022-09-24T09:36:55.827Z,75.43
2022-09-24T09:40:00.211Z,74.36
2022-09-24T09:42:36.171Z,74.19
2022-09-24T09:45:39.455Z,74.39
2022-09-24T09:48:12.805Z,73.36
2022-09-24T09:50:46.289Z,73.37
2022-09-24T09:53:29.856Z,73.38
2022-09-24T09:56:01.959Z,72.18
2022-09-24T09:58:31.484Z,72.43
2022-09-24T10:01:03.988Z,72.58
2022-09-24T10:03:52.253Z,73.41
2022-09-24T10:06:28.798Z,73.00
2022-09-24T10:09:12.733Z,72.49
2022-09-24T10:11:39.743Z,71.56
2022-09-24T10:14:10.722Z,72.28
2022-09-24T10:16:41.662Z,72.08
2022-09-24T10:19:21.668Z,72.68
2022-09-24T10:21:49.210Z,71.94
2022-09-24T10:24:18.810Z,70.39
2022-09-24T10:26:46.643Z,70.20
2022-09-24T10:29:36.586Z,69.61
2022-09-24T10:32:04.760Z,70.39
2022-09-24T10:34:31.618Z,70.25
2022-09-24T10:37:00.315Z,69.06
2022-09-24T10:39:27.024Z,67.95
2022-09-24T10:41:57.006Z,68.10
2022-09-24T10:44:26.224Z,67.10
2022-09-24T10:47:14.606Z,67.40
2022-09-24T10:49:47.098Z,67.71
2022-09-24T10:52:23.379Z,67.42
2022-09-24T10:55:26.980Z,67.71
2022-09-24T10:58:14.652Z,67.45
2022-09-24T11:00:52.056Z,67.71
2022-09-24T11:03:35.454Z,67.34
2022-09-24T11:06:36.375Z,66.53
2022-09-24T11:09:25.538Z,66.11
2022-09-24T11:12:09.752Z,67.00
2022-09-24T11:14:55.220Z,66.12
2022-09-24T11:17:47.285Z,64.79
2022-09-24T11:20:35.806Z,65.63
2022-09-24T11:23:22.109Z,63.54
2022-09-24T11:25:54.495Z,65.12
2022-09-24T11:29:12.192Z,64.87
2022-09-24T11:32:06.917Z,66.87
2022-09-24T11:34:52.589Z,68.88
2022-09-24T11:37:39.201Z,71.13
2022-09-24T11:40:24.072Z,68.74
2022-09-24T11:43:19.983Z,67.58
2022-09-24T11:46:10.839Z,67.24
2022-09-24T11:49:07.676Z,67.17
2022-09-24T11:51:34.383Z,66.40
2022-09-24T11:54:04.773Z,65.97
2022-09-24T11:56:41.395Z,65.21
2022-09-24T11:59:39.406Z,64.28
2022-09-24T12:02:10.740Z,63.49
2022-09-24T12:04:56.003Z,61.43
2022-09-24T12:07:44.776Z,61.50
2022-09-24T12:10:43.236Z,62.02
2022-09-24T12:13:20.478Z,59.19
2022-09-24T12:15:56.553Z,60.71
2022-09-24T12:18:27.870Z,58.76
2022-09-24T12:21:02.037Z,57.52
2022-09-24T12:23:35.707Z,58.53
2022-09-24T12:26:05.502Z,57.47
2022-09-24T12:29:16.005Z,58.22
2022-09-24T12:32:14.252Z,56.83
2022-09-24T12:34:47.200Z,55.18
2022-09-24T12:37:16.869Z,54.65
2022-09-24T12:40:14.566Z,55.05
2022-09-24T12:42:49.017Z,52.37
2022-09-24T12:45:22.463Z,52.38
2022-09-24T12:47:52.289Z,49.81
2022-09-24T12:50:25.109Z,49.05
2022-09-24T12:52:51.971Z,48.67
2022-09-24T12:55:26.594Z,46.77
2022-09-24T12:58:07.194Z,46.02
2022-09-24T13:00:41.473Z,45.24
2022-09-24T13:03:33.096Z,46.61
2022-09-24T13:06:20.023Z,47.09
2022-09-24T13:08:46.886Z,46.37
2022-09-24T13:11:33.588Z,45.58
2022-09-24T13:14:12.650Z,46.12
2022-09-24T13:16:41.604Z,49.19
2022-09-24T13:19:37.054Z,49.71
2022-09-24T13:22:05.289Z,50.47
2022-09-24T13:24:53.341Z,49.63
2022-09-24T13:27:30.941Z,48.21
2022-09-24T13:30:26.234Z,45.65
2022-09-24T13:33:03.629Z,44.97
2022-09-24T13:35:34.811Z,46.16
2022-09-24T13:38:07.443Z,45.62
2022-09-24T13:40:37.718Z,47.17
2022-09-24T13:43:09.519Z,50.37
2022-09-24T13:45:41.646Z,50.84
2022-09-24T13:48:33.494Z,51.39
2022-09-24T13:51:03.636Z,53.23
2022-09-24T13:53:50.467Z,53.04
2022-09-24T13:56:18.620Z,52.86
2022-09-24T13:58:45.662Z,53.50
2022-09-24T14:01:19.593Z,52.30
2022-09-24T14:03:58.890Z,50.52
2022-09-24T14:06:37.635Z,47.53
2022-09-24T14:09:35.430Z,44.91
2022-09-24T14:12:22.531Z,42.70
2022-09-24T14:14:58.207Z,44.02
2022-09-24T14:17:25.567Z,43.90
2022-09-24T14:19:56.835Z,41.97
2022-09-24T14:22:25.778Z,42.46
2022-09-24T14:25:11.087Z,42.25
2022-09-24T14:27:44.154Z,42.63
2022-09-24T14:30:24.886Z,43.30
2022-09-24T14:32:55.552Z,45.54
2022-09-24T14:35:29.092Z,47.51
2022-09-24T14:38:06.691Z,45.63
2022-09-24T14:41:12.745Z,48.33
2022-09-24T14:43:48.646Z,53.06
2022-09-24T14:46:28.968Z,52.37
2022-09-24T14:49:29.263Z,55.66
2022-09-24T14:52:01.188Z,57.38
2022-09-24T14:54:40.382Z,60.83
2022-09-24T14:57:11.501Z,63.33
2022-09-24T14:59:39.481Z,62.06
2022-09-24T15:02:23.034Z,61.76
2022-09-24T15:05:03.296Z,61.74
2022-09-24T15:07:33.525Z,62.60
2022-09-24T15:10:01.607Z,62.33
2022-09-24T15:12:33.458Z,61.90
2022-09-24T15:15:06.997Z,60.84
2022-09-24T15:17:35.871Z,60.75
2022-09-24T15:20:04.488Z,56.29
2022-09-24T15:22:31.631Z,56.29
2022-09-24T15:25:01.901Z,56.91
2022-09-24T15:27:33.786Z,59.64
2022-09-24T15:30:01.989Z,60.07
2022-09-24T15:32:35.139Z,58.30
2022-09-24T15:35:07.454Z,58.49
2022-09-24T15:37:34.358Z,58.68
2022-09-24T15:43:23.489Z,57.85
2022-09-24T15:45:51.339Z,56.02
2022-09-24T15:48:18.518Z,57.48
2022-09-24T15:50:46.759Z,59.85
2022-09-24T15:53:22.019Z,59.20
2022-09-24T15:55:51.962Z,56.16
2022-09-24T15:58:19.716Z,57.07
2022-09-24T16:00:46.675Z,58.32
2022-09-24T16:03:25.719Z,57.70
2022-09-24T16:05:53.242Z,54.98
2022-09-24T16:08:20.064Z,56.70
2022-09-24T16:10:47.501Z,55.46
2022-09-24T16:13:15.053Z,57.03
2022-09-24T16:15:42.177Z,56.00
2022-09-24T16:18:14.073Z,57.87
2022-09-24T16:20:41.478Z,57.14
2022-09-24T16:23:14.488Z,58.03
2022-09-24T16:25:43.302Z,58.42
2022-09-24T16:28:10.071Z,59.44
2022-09-24T16:30:38.761Z,57.44
2022-09-24T16:33:05.728Z,59.65
2022-09-24T16:35:32.524Z,60.89
2022-09-24T16:37:59.249Z,60.83
2022-09-24T16:40:26.068Z,61.04
2022-09-24T16:42:52.895Z,61.08
2022-09-24T16:45:19.731Z,60.89
2022-09-24T16:47:46.536Z,59.72
2022-09-24T16:50:13.356Z,61.39
2022-09-24T16:52:40.292Z,61.64
2022-09-24T16:55:07.806Z,62.30
2022-09-24T16:57:37.357Z,62.63
2022-09-24T17:00:08.102Z,62.27
2022-09-24T17:02:35.236Z,63.73
2022-09-24T17:05:02.114Z,63.07
2022-09-24T17:07:32.580Z,64.07
2022-09-24T17:10:18.461Z,63.51
2022-09-24T17:12:48.256Z,60.76
2022-09-24T17:15:16.826Z,61.51
2022-09-24T17:17:49.438Z,62.18
2022-09-24T17:20:17.658Z,62.20
2022-09-24T17:22:44.349Z,62.03
2022-09-24T17:25:11.304Z,63.59
2022-09-24T17:27:40.052Z,64.82
2022-09-24T17:30:07.654Z,64.45
2022-09-24T17:32:34.401Z,65.81
2022-09-24T17:35:01.154Z,65.11
2022-09-24T17:37:28.424Z,64.31
2022-09-24T17:39:55.199Z,65.73
2022-09-24T17:42:21.901Z,66.00
2022-09-24T17:44:48.721Z,65.90
2022-09-24T17:47:15.600Z,66.29
2022-09-24T17:49:42.775Z,66.57
2022-09-24T17:52:09.487Z,67.31
2022-09-24T17:54:36.323Z,66.62
2022-09-24T17:57:03.151Z,67.90
2022-09-24T17:59:29.880Z,68.47
2022-09-24T18:01:57.396Z,68.40
2022-09-24T18:04:26.943Z,69.40
2022-09-24T18:06:53.924Z,70.01
2022-09-24T18:09:20.920Z,68.73
2022-09-24T18:11:49.453Z,69.25
2022-09-24T18:14:20.335Z,68.98
2022-09-24T18:16:49.114Z,68.74
2022-09-24T18:19:17.579Z,68.99
2022-09-24T18:21:45.770Z,69.66
2022-09-24T18:24:12.800Z,69.55
2022-09-24T18:26:40.133Z,69.70
2022-09-24T18:29:16.938Z,69.73
2022-09-24T18:31:44.066Z,69.52
2022-09-24T18:34:14.097Z,68.32
2022-09-24T18:36:42.080Z,69.62
2022-09-24T18:39:13.161Z,69.64
2022-09-24T18:41:40.964Z,70.57
2022-09-24T18:44:07.941Z,70.19
2022-09-24T18:46:39.298Z,70.33
2022-09-24T18:49:06.555Z,70.09
2022-09-24T18:51:35.401Z,72.18
2022-09-24T18:54:15.648Z,71.86
2022-09-24T18:56:43.608Z,71.27
2022-09-24T18:59:12.586Z,71.71
2022-09-24T19:01:40.551Z,72.04
2022-09-24T19:04:10.595Z,71.89
2022-09-24T19:06:42.591Z,71.65
2022-09-24T19:09:11.419Z,72.92
2022-09-24T19:11:38.187Z,71.84
2022-09-24T19:14:05.030Z,71.04
2022-09-24T19:16:33.050Z,71.42
2022-09-24T19:19:01.341Z,70.59
2022-09-24T19:21:28.102Z,70.59
2022-09-24T19:23:57.494Z,71.78
2022-09-24T19:26:29.570Z,71.51
2022-09-24T19:28:57.157Z,71.26
2022-09-24T19:31:32.560Z,70.91
2022-09-24T19:34:03.151Z,73.05
2022-09-24T19:36:30.550Z,72.99
2022-09-24T19:38:57.999Z,74.21
2022-09-24T19:41:26.538Z,73.38
2022-09-24T19:43:55.514Z,73.27
2022-09-24T19:46:26.877Z,74.22
2022-09-24T19:48:55.679Z,74.00
2022-09-24T19:51:31.047Z,74.54
2022-09-24T19:54:00.299Z,74.58
2022-09-24T19:56:27.453Z,73.62
2022-09-24T19:58:56.529Z,73.82
2022-09-24T20:01:26.181Z,72.94
2022-09-24T20:03:52.987Z,72.73
2022-09-24T20:06:22.685Z,74.33
2022-09-24T20:08:49.456Z,73.19
2022-09-24T20:11:19.452Z,73.90
2022-09-24T20:13:50.363Z,73.51
2022-09-24T20:16:22.034Z,73.31
2022-09-24T20:18:50.078Z,72.53
2022-09-24T20:21:18.437Z,73.06
2022-09-24T20:23:46.676Z,73.96
2022-09-24T20:26:32.923Z,74.12
2022-09-24T20:29:00.105Z,73.63
2022-09-24T20:31:26.909Z,73.27
2022-09-24T20:33:53.810Z,71.62
2022-09-24T20:36:24.067Z,72.79
2022-09-24T20:38:51.729Z,73.05
2022-09-24T20:41:21.550Z,73.57
2022-09-24T20:43:48.607Z,73.08
2022-09-24T20:46:22.058Z,72.64
2022-09-24T20:48:49.022Z,74.42
2022-09-24T20:51:18.253Z,74.70
2022-09-24T20:53:46.295Z,74.12
2022-09-24T20:56:13.712Z,75.41
2022-09-24T20:58:40.614Z,72.40
2022-09-24T21:01:09.281Z,73.08
2022-09-24T21:03:45.975Z,73.23
2022-09-24T21:06:15.114Z,73.82
2022-09-24T21:08:44.285Z,74.59
2022-09-24T21:11:18.808Z,74.04
2022-09-24T21:13:51.381Z,74.25
2022-09-24T21:16:20.924Z,73.55
2022-09-24T21:18:49.113Z,72.82
2022-09-24T21:21:20.886Z,75.07
2022-09-24T21:23:50.329Z,72.11
2022-09-24T21:26:28.353Z,72.54
2022-09-24T21:28:58.515Z,72.37
2022-09-24T21:31:28.935Z,73.27
2022-09-24T21:33:56.133Z,74.19
2022-09-24T21:36:25.067Z,74.80
2022-09-24T21:39:02.572Z,75.40
2022-09-24T21:41:31.739Z,76.09
2022-09-24T21:43:58.857Z,76.96
2022-09-24T21:46:27.653Z,76.06
2022-09-24T21:48:55.525Z,77.42
2022-09-24T21:51:22.813Z,76.40
2022-09-24T21:53:53.732Z,77.40
2022-09-24T21:56:21.492Z,77.42
2022-09-24T21:58:49.206Z,77.57
2022-09-24T22:01:30.368Z,77.64
2022-09-24T22:04:07.143Z,77.09
2022-09-24T22:06:33.955Z,77.34
2022-09-24T22:09:05.825Z,77.35
2022-09-24T22:11:34.491Z,77.73
2022-09-24T22:14:02.499Z,77.62
2022-09-24T22:16:31.421Z,77.59
2022-09-24T22:18:58.707Z,77.18
2022-09-24T22:21:25.858Z,76.71
2022-09-24T22:23:52.978Z,76.27
2022-09-24T22:26:19.939Z,76.52
2022-09-24T22:28:46.821Z,77.51
2022-09-24T22:31:15.819Z,77.29
2022-09-24T22:34:01.302Z,77.06
2022-09-24T22:36:28.795Z,77.90
2022-09-24T22:38:56.914Z,76.92
2022-09-24T22:41:24.633Z,76.57
2022-09-24T22:43:52.197Z,76.45
2022-09-24T22:46:19.273Z,75.68
2022-09-24T22:48:50.330Z,76.04
2022-09-24T22:51:17.022Z,76.52
2022-09-24T22:53:43.750Z,76.77
2022-09-24T22:56:12.943Z,76.21
2022-09-24T22:58:41.330Z,74.79
2022-09-24T23:01:13.704Z,75.13
2022-09-24T23:03:41.417Z,75.64
2022-09-24T23:06:08.985Z,76.64
2022-09-24T23:08:37.012Z,75.44
2022-09-24T23:11:12.209Z,74.87
2022-09-24T23:13:40.320Z,74.78
2022-09-24T23:16:10.291Z,75.21
2022-09-24T23:18:37.887Z,74.96
2022-09-24T23:21:06.714Z,75.25
2022-09-24T23:23:33.839Z,75.94
2022-09-24T23:26:05.009Z,75.16
2022-09-24T23:28:32.500Z,75.04
2022-09-24T23:30:59.979Z,74.82
2022-09-24T23:33:27.355Z,74.91
2022-09-24T23:35:54.897Z,75.50
2022-09-24T23:38:21.748Z,74.87
2022-09-24T23:40:50.885Z,74.88
2022-09-24T23:43:19.819Z,75.14
2022-09-24T23:45:46.987Z,76.14
2022-09-24T23:48:14.415Z,75.94
2022-09-24T23:50:42.728Z,76.05
2022-09-24T23:53:09.490Z,75.83
2022-09-24T23:55:36.713Z,76.17
2022-09-24T23:58:03.570Z,76.34
